sensor_id;sensor_type;location;lat;lon;timestamp;pressure;altitude;pressure_sealevel;temperature;humidity
64230;BME280;50547;49.498;0.092;2022-10-23T00:02:06;1005;;;17.84;77.57
64230;BME280;50547;49.498;0.092;2022-10-23T00:04:35;1004;;;17.85;77.40
64230;BME280;50547;49.498;0.092;2022-10-23T00:07:04;1004;;;17.86;77.31
64230;BME280;50547;49.498;0.092;2022-10-23T00:09:34;1004;;;17.84;77.43
64230;BME280;50547;49.498;0.092;2022-10-23T00:12:03;1004;;;17.80;77.61
64230;BME280;50547;49.498;0.092;2022-10-23T00:14:33;1004;;;17.81;77.42
64230;BME280;50547;49.498;0.092;2022-10-23T00:17:02;1004;;;17.82;77.41
64230;BME280;50547;49.498;0.092;2022-10-23T00:19:31;1004;;;17.79;77.60
64230;BME280;50547;49.498;0.092;2022-10-23T00:22:00;1004;;;17.80;77.61
64230;BME280;50547;49.498;0.092;2022-10-23T00:24:29;1004;;;17.75;77.81
64230;BME280;50547;49.498;0.092;2022-10-23T00:26:58;1004;;;17.71;77.95
64230;BME280;50547;49.498;0.092;2022-10-23T00:29:28;1004;;;17.71;77.91
64230;BME280;50547;49.498;0.092;2022-10-23T00:31:57;1004;;;17.68;77.78
64230;BME280;50547;49.498;0.092;2022-10-23T00:34:26;1004;;;17.69;77.69
64230;BME280;50547;49.498;0.092;2022-10-23T00:36:55;1004;;;17.75;77.17
64230;BME280;50547;49.498;0.092;2022-10-23T00:39:24;1004;;;17.73;77.36
64230;BME280;50547;49.498;0.092;2022-10-23T00:41:53;1004;;;17.76;77.05
64230;BME280;50547;49.498;0.092;2022-10-23T00:45:28;1004;;;17.77;76.95
64230;BME280;50547;49.498;0.092;2022-10-23T00:47:59;1004;;;17.76;77.02
64230;BME280;50547;49.498;0.092;2022-10-23T00:50:31;1004;;;17.78;76.94
64230;BME280;50547;49.498;0.092;2022-10-23T00:53:02;1004;;;17.88;76.52
64230;BME280;50547;49.498;0.092;2022-10-23T00:55:33;1004;;;17.85;76.71
64230;BME280;50547;49.498;0.092;2022-10-23T00:58:03;1004;;;17.86;76.60
64230;BME280;50547;49.498;0.092;2022-10-23T01:00:41;1004;;;17.82;76.94
64230;BME280;50547;49.498;0.092;2022-10-23T01:03:12;1004;;;17.86;76.75
64230;BME280;50547;49.498;0.092;2022-10-23T01:05:48;1004;;;17.85;76.77
64230;BME280;50547;49.498;0.092;2022-10-23T01:08:23;1003;;;17.87;76.51
64230;BME280;50547;49.498;0.092;2022-10-23T01:11:01;1003;;;17.91;76.34
64230;BME280;50547;49.498;0.092;2022-10-23T01:13:38;1003;;;17.93;76.35
64230;BME280;50547;49.498;0.092;2022-10-23T01:16:16;1003;;;17.89;76.52
64230;BME280;50547;49.498;0.092;2022-10-23T01:18:51;1003;;;17.91;76.28
64230;BME280;50547;49.498;0.092;2022-10-23T01:21:27;1003;;;17.92;76.18
64230;BME280;50547;49.498;0.092;2022-10-23T01:24:07;1003;;;17.91;76.39
64230;BME280;50547;49.498;0.092;2022-10-23T01:26:46;1003;;;17.91;76.29
64230;BME280;50547;49.498;0.092;2022-10-23T01:29:21;1003;;;17.93;76.29
64230;BME280;50547;49.498;0.092;2022-10-23T01:31:57;1003;;;17.86;76.63
64230;BME280;50547;49.498;0.092;2022-10-23T01:34:31;1003;;;17.82;76.81
64230;BME280;50547;49.498;0.092;2022-10-23T01:37:03;1003;;;17.82;76.67
64230;BME280;50547;49.498;0.092;2022-10-23T01:39:38;1003;;;17.82;76.62
64230;BME280;50547;49.498;0.092;2022-10-23T01:42:10;1003;;;17.83;76.44
64230;BME280;50547;49.498;0.092;2022-10-23T01:44:43;1003;;;17.79;76.61
64230;BME280;50547;49.498;0.092;2022-10-23T01:47:16;1003;;;17.77;76.62
64230;BME280;50547;49.498;0.092;2022-10-23T01:49:47;1003;;;17.77;76.50
64230;BME280;50547;49.498;0.092;2022-10-23T01:52:17;1002;;;17.80;76.27
64230;BME280;50547;49.498;0.092;2022-10-23T01:54:49;1002;;;17.79;76.25
64230;BME280;50547;49.498;0.092;2022-10-23T01:57:21;1002;;;17.78;76.36
64230;BME280;50547;49.498;0.092;2022-10-23T01:59:53;1002;;;17.81;76.16
64230;BME280;50547;49.498;0.092;2022-10-23T02:02:26;1002;;;17.77;76.28
64230;BME280;50547;49.498;0.092;2022-10-23T02:05:01;1002;;;17.76;76.24
64230;BME280;50547;49.498;0.092;2022-10-23T02:07:31;1002;;;17.75;76.33
64230;BME280;50547;49.498;0.092;2022-10-23T02:10:02;1002;;;17.76;76.21
64230;BME280;50547;49.498;0.092;2022-10-23T02:12:39;1002;;;17.81;75.85
64230;BME280;50547;49.498;0.092;2022-10-23T02:15:18;1002;;;17.86;75.60
64230;BME280;50547;49.498;0.092;2022-10-23T02:17:57;1002;;;17.84;75.65
64230;BME280;50547;49.498;0.092;2022-10-23T02:20:36;1002;;;17.82;75.77
64230;BME280;50547;49.498;0.092;2022-10-23T02:23:15;1002;;;17.85;75.62
64230;BME280;50547;49.498;0.092;2022-10-23T02:25:52;1002;;;17.80;75.74
64230;BME280;50547;49.498;0.092;2022-10-23T02:28:28;1002;;;17.81;75.71
64230;BME280;50547;49.498;0.092;2022-10-23T02:31:02;1002;;;17.79;75.76
64230;BME280;50547;49.498;0.092;2022-10-23T02:33:33;1002;;;17.75;75.94
64230;BME280;50547;49.498;0.092;2022-10-23T02:36:04;1002;;;17.74;75.93
64230;BME280;50547;49.498;0.092;2022-10-23T02:38:35;1002;;;17.76;75.79
64230;BME280;50547;49.498;0.092;2022-10-23T02:41:15;1001;;;17.78;75.54
64230;BME280;50547;49.498;0.092;2022-10-23T02:43:56;1001;;;17.74;75.74
64230;BME280;50547;49.498;0.092;2022-10-23T02:46:39;1001;;;17.78;75.44
64230;BME280;50547;49.498;0.092;2022-10-23T02:49:18;1001;;;17.72;75.84
64230;BME280;50547;49.498;0.092;2022-10-23T02:51:57;1001;;;17.84;75.09
64230;BME280;50547;49.498;0.092;2022-10-23T02:54:42;1002;;;17.89;74.97
64230;BME280;50547;49.498;0.092;2022-10-23T02:57:21;1001;;;17.94;74.80
64230;BME280;50547;49.498;0.092;2022-10-23T03:00:00;1002;;;17.93;74.85
64230;BME280;50547;49.498;0.092;2022-10-23T03:02:36;1001;;;17.92;74.96
64230;BME280;50547;49.498;0.092;2022-10-23T03:05:08;1001;;;17.89;75.05
64230;BME280;50547;49.498;0.092;2022-10-23T03:07:39;1001;;;17.93;74.93
64230;BME280;50547;49.498;0.092;2022-10-23T03:10:09;1001;;;18.01;74.35
64230;BME280;50547;49.498;0.092;2022-10-23T03:12:38;1001;;;18.04;74.31
64230;BME280;50547;49.498;0.092;2022-10-23T03:15:10;1001;;;18.21;73.21
64230;BME280;50547;49.498;0.092;2022-10-23T03:17:40;1001;;;18.21;73.36
64230;BME280;50547;49.498;0.092;2022-10-23T03:20:10;1001;;;18.21;73.06
64230;BME280;50547;49.498;0.092;2022-10-23T03:22:39;1001;;;18.32;72.66
64230;BME280;50547;49.498;0.092;2022-10-23T03:25:09;1001;;;18.39;72.22
64230;BME280;50547;49.498;0.092;2022-10-23T03:27:38;1001;;;18.40;72.13
64230;BME280;50547;49.498;0.092;2022-10-23T03:30:08;1001;;;18.49;71.57
64230;BME280;50547;49.498;0.092;2022-10-23T03:32:38;1001;;;18.53;71.41
64230;BME280;50547;49.498;0.092;2022-10-23T03:35:07;1001;;;18.61;71.05
64230;BME280;50547;49.498;0.092;2022-10-23T03:37:36;1001;;;18.64;70.83
64230;BME280;50547;49.498;0.092;2022-10-23T03:40:07;1001;;;18.65;70.88
64230;BME280;50547;49.498;0.092;2022-10-23T03:42:36;1001;;;18.72;70.67
64230;BME280;50547;49.498;0.092;2022-10-23T03:45:06;1001;;;18.78;70.42
64230;BME280;50547;49.498;0.092;2022-10-23T03:47:36;1001;;;18.79;70.63
64230;BME280;50547;49.498;0.092;2022-10-23T03:50:06;1001;;;18.90;70.17
64230;BME280;50547;49.498;0.092;2022-10-23T03:52:35;1001;;;19.01;69.75
64230;BME280;50547;49.498;0.092;2022-10-23T03:55:06;1000;;;18.96;70.20
64230;BME280;50547;49.498;0.092;2022-10-23T03:57:35;1001;;;19.00;70.10
64230;BME280;50547;49.498;0.092;2022-10-23T04:00:06;1001;;;19.06;69.88
64230;BME280;50547;49.498;0.092;2022-10-23T04:02:36;1001;;;19.06;70.07
64230;BME280;50547;49.498;0.092;2022-10-23T04:05:05;1001;;;19.09;70.11
64230;BME280;50547;49.498;0.092;2022-10-23T04:07:35;1001;;;19.14;69.99
64230;BME280;50547;49.498;0.092;2022-10-23T04:10:05;1001;;;19.21;69.82
64230;BME280;50547;49.498;0.092;2022-10-23T04:12:34;1001;;;19.22;69.79
64230;BME280;50547;49.498;0.092;2022-10-23T04:15:04;1001;;;19.23;69.95
64230;BME280;50547;49.498;0.092;2022-10-23T04:17:33;1001;;;19.23;70.14
64230;BME280;50547;49.498;0.092;2022-10-23T04:20:03;1001;;;19.27;70.10
64230;BME280;50547;49.498;0.092;2022-10-23T04:22:32;1001;;;19.22;70.26
64230;BME280;50547;49.498;0.092;2022-10-23T04:25:02;1001;;;19.12;71.06
64230;BME280;50547;49.498;0.092;2022-10-23T04:27:31;1001;;;19.20;70.73
64230;BME280;50547;49.498;0.092;2022-10-23T04:30:00;1001;;;19.28;70.40
64230;BME280;50547;49.498;0.092;2022-10-23T04:32:30;1001;;;19.28;70.42
64230;BME280;50547;49.498;0.092;2022-10-23T04:34:59;1001;;;19.24;70.75
64230;BME280;50547;49.498;0.092;2022-10-23T04:37:28;1000;;;19.28;70.70
64230;BME280;50547;49.498;0.092;2022-10-23T04:39:57;1000;;;19.25;70.85
64230;BME280;50547;49.498;0.092;2022-10-23T04:42:26;1000;;;19.34;70.50
64230;BME280;50547;49.498;0.092;2022-10-23T04:44:55;1001;;;19.38;70.34
64230;BME280;50547;49.498;0.092;2022-10-23T04:47:24;1001;;;19.47;70.09
64230;BME280;50547;49.498;0.092;2022-10-23T04:49:54;1001;;;19.45;70.20
64230;BME280;50547;49.498;0.092;2022-10-23T04:52:23;1001;;;19.45;70.34
64230;BME280;50547;49.498;0.092;2022-10-23T04:54:52;1001;;;19.45;70.41
64230;BME280;50547;49.498;0.092;2022-10-23T04:57:21;1001;;;19.35;70.97
64230;BME280;50547;49.498;0.092;2022-10-23T04:59:50;1000;;;19.20;71.77
64230;BME280;50547;49.498;0.092;2022-10-23T05:02:19;1001;;;19.12;72.13
64230;BME280;50547;49.498;0.092;2022-10-23T05:04:49;1001;;;19.06;72.24
64230;BME280;50547;49.498;0.092;2022-10-23T05:07:18;1001;;;19.06;72.23
64230;BME280;50547;49.498;0.092;2022-10-23T05:09:47;1001;;;18.99;72.59
64230;BME280;50547;49.498;0.092;2022-10-23T05:12:17;1001;;;18.95;72.73
64230;BME280;50547;49.498;0.092;2022-10-23T05:14:46;1001;;;18.88;73.08
64230;BME280;50547;49.498;0.092;2022-10-23T05:17:17;1001;;;18.91;72.78
64230;BME280;50547;49.498;0.092;2022-10-23T05:19:50;1001;;;18.64;74.12
64230;BME280;50547;49.498;0.092;2022-10-23T05:22:23;1001;;;18.60;74.13
64230;BME280;50547;49.498;0.092;2022-10-23T05:24:54;1001;;;18.59;74.00
64230;BME280;50547;49.498;0.092;2022-10-23T05:27:23;1000;;;18.49;74.48
64230;BME280;50547;49.498;0.092;2022-10-23T05:29:52;1000;;;18.37;75.06
64230;BME280;50547;49.498;0.092;2022-10-23T05:32:23;1000;;;18.31;75.34
64230;BME280;50547;49.498;0.092;2022-10-23T05:34:53;1000;;;18.31;75.13
64230;BME280;50547;49.498;0.092;2022-10-23T05:37:23;1000;;;18.22;75.55
64230;BME280;50547;49.498;0.092;2022-10-23T05:39:53;1000;;;18.42;74.47
64230;BME280;50547;49.498;0.092;2022-10-23T05:42:22;1000;;;18.50;74.21
64230;BME280;50547;49.498;0.092;2022-10-23T05:44:51;1000;;;18.56;74.11
64230;BME280;50547;49.498;0.092;2022-10-23T05:47:20;1000;;;18.60;74.01
64230;BME280;50547;49.498;0.092;2022-10-23T05:49:50;999;;;18.56;74.57
64230;BME280;50547;49.498;0.092;2022-10-23T05:52:19;999;;;18.60;74.64
64230;BME280;50547;49.498;0.092;2022-10-23T05:54:50;1000;;;18.61;75.07
64230;BME280;50547;49.498;0.092;2022-10-23T05:57:19;1000;;;18.62;74.99
64230;BME280;50547;49.498;0.092;2022-10-23T05:59:48;1000;;;18.56;75.85
64230;BME280;50547;49.498;0.092;2022-10-23T06:02:17;1000;;;18.47;76.35
64230;BME280;50547;49.498;0.092;2022-10-23T06:04:46;1000;;;18.40;76.85
64230;BME280;50547;49.498;0.092;2022-10-23T06:07:12;1000;;;18.40;76.83
64230;BME280;50547;49.498;0.092;2022-10-23T06:09:41;1000;;;18.51;76.34
64230;BME280;50547;49.498;0.092;2022-10-23T06:12:10;1000;;;18.50;76.48
64230;BME280;50547;49.498;0.092;2022-10-23T06:14:39;1000;;;18.66;75.73
64230;BME280;50547;49.498;0.092;2022-10-23T06:17:08;1000;;;18.73;75.79
64230;BME280;50547;49.498;0.092;2022-10-23T06:19:38;1000;;;18.89;75.03
64230;BME280;50547;49.498;0.092;2022-10-23T06:22:07;1000;;;18.97;74.86
64230;BME280;50547;49.498;0.092;2022-10-23T06:24:36;1000;;;18.95;75.13
64230;BME280;50547;49.498;0.092;2022-10-23T06:27:05;1000;;;19.03;74.99
64230;BME280;50547;49.498;0.092;2022-10-23T06:29:34;1000;;;18.99;75.36
64230;BME280;50547;49.498;0.092;2022-10-23T06:32:04;1000;;;19.16;74.59
64230;BME280;50547;49.498;0.092;2022-10-23T06:34:33;1000;;;19.22;74.24
64230;BME280;50547;49.498;0.092;2022-10-23T06:37:02;1000;;;19.09;74.92
64230;BME280;50547;49.498;0.092;2022-10-23T06:39:31;1000;;;19.12;74.90
64230;BME280;50547;49.498;0.092;2022-10-23T06:42:00;1000;;;18.93;76.07
64230;BME280;50547;49.498;0.092;2022-10-23T06:44:30;1000;;;18.93;75.96
64230;BME280;50547;49.498;0.092;2022-10-23T06:46:59;1000;;;18.85;76.43
64230;BME280;50547;49.498;0.092;2022-10-23T06:49:28;1000;;;18.86;76.30
64230;BME280;50547;49.498;0.092;2022-10-23T06:51:57;1000;;;18.79;76.67
64230;BME280;50547;49.498;0.092;2022-10-23T06:54:26;1000;;;18.80;76.58
64230;BME280;50547;49.498;0.092;2022-10-23T06:56:56;1000;;;18.74;76.92
64230;BME280;50547;49.498;0.092;2022-10-23T06:59:25;1000;;;18.79;76.56
64230;BME280;50547;49.498;0.092;2022-10-23T07:01:54;1000;;;18.80;76.59
64230;BME280;50547;49.498;0.092;2022-10-23T07:04:23;1000;;;18.84;76.45
64230;BME280;50547;49.498;0.092;2022-10-23T07:06:54;1000;;;18.86;76.35
64230;BME280;50547;49.498;0.092;2022-10-23T07:09:23;1000;;;18.89;76.18
64230;BME280;50547;49.498;0.092;2022-10-23T07:11:52;1000;;;18.91;76.06
64230;BME280;50547;49.498;0.092;2022-10-23T07:14:21;1000;;;19.01;75.61
64230;BME280;50547;49.498;0.092;2022-10-23T07:16:51;1000;;;18.98;75.75
64230;BME280;50547;49.498;0.092;2022-10-23T07:19:20;1000;;;18.99;75.74
64230;BME280;50547;49.498;0.092;2022-10-23T07:21:49;1000;;;19.01;75.72
64230;BME280;50547;49.498;0.092;2022-10-23T07:24:18;1000;;;19.07;75.42
64230;BME280;50547;49.498;0.092;2022-10-23T07:26:47;1000;;;19.09;75.35
64230;BME280;50547;49.498;0.092;2022-10-23T07:29:17;1000;;;19.09;75.44
64230;BME280;50547;49.498;0.092;2022-10-23T07:31:46;1000;;;19.14;75.18
64230;BME280;50547;49.498;0.092;2022-10-23T07:34:15;999;;;19.12;75.30
64230;BME280;50547;49.498;0.092;2022-10-23T07:36:44;999;;;19.14;75.28
64230;BME280;50547;49.498;0.092;2022-10-23T07:39:13;999;;;19.10;75.50
64230;BME280;50547;49.498;0.092;2022-10-23T07:42:12;999;;;19.18;74.97
64230;BME280;50547;49.498;0.092;2022-10-23T07:44:41;999;;;19.21;75.00
64230;BME280;50547;49.498;0.092;2022-10-23T07:47:07;999;;;19.28;74.72
64230;BME280;50547;49.498;0.092;2022-10-23T07:49:36;999;;;19.28;74.59
64230;BME280;50547;49.498;0.092;2022-10-23T07:52:06;999;;;19.30;74.68
64230;BME280;50547;49.498;0.092;2022-10-23T07:54:35;999;;;19.31;74.64
64230;BME280;50547;49.498;0.092;2022-10-23T07:57:04;999;;;19.37;74.28
64230;BME280;50547;49.498;0.092;2022-10-23T07:59:34;999;;;19.43;74.12
64230;BME280;50547;49.498;0.092;2022-10-23T08:02:03;999;;;19.51;73.75
64230;BME280;50547;49.498;0.092;2022-10-23T08:04:29;999;;;19.54;73.63
64230;BME280;50547;49.498;0.092;2022-10-23T08:06:59;999;;;19.57;73.68
64230;BME280;50547;49.498;0.092;2022-10-23T08:09:28;999;;;19.67;73.18
64230;BME280;50547;49.498;0.092;2022-10-23T08:11:57;999;;;19.72;73.32
64230;BME280;50547;49.498;0.092;2022-10-23T08:14:26;999;;;19.70;73.55
64230;BME280;50547;49.498;0.092;2022-10-23T08:16:55;999;;;19.71;73.74
64230;BME280;50547;49.498;0.092;2022-10-23T08:19:25;999;;;19.70;73.66
64230;BME280;50547;49.498;0.092;2022-10-23T08:21:54;999;;;19.75;73.55
64230;BME280;50547;49.498;0.092;2022-10-23T08:24:23;999;;;19.74;73.63
64230;BME280;50547;49.498;0.092;2022-10-23T08:26:52;999;;;19.70;73.74
64230;BME280;50547;49.498;0.092;2022-10-23T08:29:21;999;;;19.78;73.42
64230;BME280;50547;49.498;0.092;2022-10-23T08:31:52;999;;;19.76;73.53
64230;BME280;50547;49.498;0.092;2022-10-23T08:34:21;999;;;19.85;73.24
64230;BME280;50547;49.498;0.092;2022-10-23T08:36:50;999;;;19.77;73.65
64230;BME280;50547;49.498;0.092;2022-10-23T08:39:20;999;;;19.65;74.11
64230;BME280;50547;49.498;0.092;2022-10-23T08:41:50;1000;;;19.73;73.74
64230;BME280;50547;49.498;0.092;2022-10-23T08:44:23;1000;;;19.80;73.29
64230;BME280;50547;49.498;0.092;2022-10-23T08:47:01;1000;;;19.86;73.08
64230;BME280;50547;49.498;0.092;2022-10-23T08:49:39;1000;;;19.75;73.68
64230;BME280;50547;49.498;0.092;2022-10-23T08:52:16;1000;;;19.88;73.18
64230;BME280;50547;49.498;0.092;2022-10-23T08:54:56;1000;;;19.92;72.93
64230;BME280;50547;49.498;0.092;2022-10-23T08:57:31;999;;;19.87;73.22
64230;BME280;50547;49.498;0.092;2022-10-23T09:00:04;999;;;19.94;72.77
64230;BME280;50547;49.498;0.092;2022-10-23T09:02:37;999;;;19.94;72.82
64230;BME280;50547;49.498;0.092;2022-10-23T09:05:13;999;;;19.92;72.93
64230;BME280;50547;49.498;0.092;2022-10-23T09:07:53;999;;;19.98;72.65
64230;BME280;50547;49.498;0.092;2022-10-23T09:10:36;999;;;20.01;72.41
64230;BME280;50547;49.498;0.092;2022-10-23T09:13:22;999;;;19.96;72.66
64230;BME280;50547;49.498;0.092;2022-10-23T09:16:01;999;;;19.93;72.93
64230;BME280;50547;49.498;0.092;2022-10-23T09:18:32;999;;;19.99;72.44
64230;BME280;50547;49.498;0.092;2022-10-23T09:21:02;999;;;20.17;71.75
64230;BME280;50547;49.498;0.092;2022-10-23T09:23:36;999;;;20.28;71.48
64230;BME280;50547;49.498;0.092;2022-10-23T09:26:11;999;;;20.44;70.97
64230;BME280;50547;49.498;0.092;2022-10-23T09:28:45;999;;;20.38;71.27
64230;BME280;50547;49.498;0.092;2022-10-23T09:31:14;999;;;20.52;70.85
64230;BME280;50547;49.498;0.092;2022-10-23T09:33:54;999;;;20.51;70.78
64230;BME280;50547;49.498;0.092;2022-10-23T09:36:24;999;;;20.51;70.79
64230;BME280;50547;49.498;0.092;2022-10-23T09:38:56;999;;;20.61;70.39
64230;BME280;50547;49.498;0.092;2022-10-23T09:41:28;999;;;20.68;70.26
64230;BME280;50547;49.498;0.092;2022-10-23T09:44:01;999;;;20.68;70.31
64230;BME280;50547;49.498;0.092;2022-10-23T09:46:39;999;;;20.60;70.70
64230;BME280;50547;49.498;0.092;2022-10-23T09:49:16;999;;;20.79;69.91
64230;BME280;50547;49.498;0.092;2022-10-23T09:51:52;999;;;20.76;70.11
64230;BME280;50547;49.498;0.092;2022-10-23T09:54:22;999;;;20.84;69.75
64230;BME280;50547;49.498;0.092;2022-10-23T09:56:53;999;;;20.90;69.55
64230;BME280;50547;49.498;0.092;2022-10-23T09:59:25;999;;;20.91;69.67
64230;BME280;50547;49.498;0.092;2022-10-23T10:01:56;999;;;20.89;69.46
64230;BME280;50547;49.498;0.092;2022-10-23T10:04:31;999;;;21.01;69.20
64230;BME280;50547;49.498;0.092;2022-10-23T10:07:03;999;;;21.03;69.08
64230;BME280;50547;49.498;0.092;2022-10-23T10:09:32;999;;;20.89;69.62
64230;BME280;50547;49.498;0.092;2022-10-23T10:12:14;999;;;20.91;69.71
64230;BME280;50547;49.498;0.092;2022-10-23T10:14:54;999;;;20.95;69.30
64230;BME280;50547;49.498;0.092;2022-10-23T10:17:33;999;;;21.00;69.16
64230;BME280;50547;49.498;0.092;2022-10-23T10:20:17;999;;;21.15;68.52
64230;BME280;50547;49.498;0.092;2022-10-23T10:22:55;999;;;21.10;68.71
64230;BME280;50547;49.498;0.092;2022-10-23T10:25:30;999;;;21.22;68.23
64230;BME280;50547;49.498;0.092;2022-10-23T10:28:17;999;;;21.27;68.06
64230;BME280;50547;49.498;0.092;2022-10-23T10:31:00;999;;;21.18;68.43
64230;BME280;50547;49.498;0.092;2022-10-23T10:33:36;999;;;21.27;68.33
64230;BME280;50547;49.498;0.092;2022-10-23T10:36:18;999;;;21.26;68.31
64230;BME280;50547;49.498;0.092;2022-10-23T10:38:58;999;;;21.29;68.22
64230;BME280;50547;49.498;0.092;2022-10-23T10:41:36;999;;;21.27;68.46
64230;BME280;50547;49.498;0.092;2022-10-23T10:44:26;999;;;21.24;68.64
64230;BME280;50547;49.498;0.092;2022-10-23T10:47:05;999;;;21.28;68.43
64230;BME280;50547;49.498;0.092;2022-10-23T10:49:41;999;;;21.46;67.79
64230;BME280;50547;49.498;0.092;2022-10-23T10:52:20;999;;;21.60;67.33
64230;BME280;50547;49.498;0.092;2022-10-23T10:55:09;999;;;21.78;66.51
64230;BME280;50547;49.498;0.092;2022-10-23T10:58:02;999;;;22.01;65.89
64230;BME280;50547;49.498;0.092;2022-10-23T11:00:34;999;;;22.38;64.89
64230;BME280;50547;49.498;0.092;2022-10-23T11:03:15;999;;;22.62;64.20
64230;BME280;50547;49.498;0.092;2022-10-23T11:05:50;999;;;22.78;63.81
64230;BME280;50547;49.498;0.092;2022-10-23T11:08:25;999;;;22.98;63.13
64230;BME280;50547;49.498;0.092;2022-10-23T11:11:02;999;;;23.05;63.28
64230;BME280;50547;49.498;0.092;2022-10-23T11:13:35;998;;;22.70;64.85
64230;BME280;50547;49.498;0.092;2022-10-23T11:16:16;999;;;22.52;65.68
64230;BME280;50547;49.498;0.092;2022-10-23T11:18:54;998;;;22.38;65.87
64230;BME280;50547;49.498;0.092;2022-10-23T11:21:31;998;;;22.24;65.74
64230;BME280;50547;49.498;0.092;2022-10-23T11:24:59;998;;;22.29;65.08
64230;BME280;50547;49.498;0.092;2022-10-23T11:28:17;998;;;22.19;65.12
64230;BME280;50547;49.498;0.092;2022-10-23T11:31:02;998;;;22.45;63.88
64230;BME280;50547;49.498;0.092;2022-10-23T11:33:53;998;;;23.30;60.39
64230;BME280;50547;49.498;0.092;2022-10-23T11:41:16;998;;;23.64;59.81
64230;BME280;50547;49.498;0.092;2022-10-23T11:43:49;998;;;23.72;59.97
64230;BME280;50547;49.498;0.092;2022-10-23T11:46:35;998;;;23.52;60.97
64230;BME280;50547;49.498;0.092;2022-10-23T11:49:19;998;;;23.55;60.72
64230;BME280;50547;49.498;0.092;2022-10-23T11:51:58;998;;;23.72;59.97
64230;BME280;50547;49.498;0.092;2022-10-23T11:54:28;998;;;23.97;58.87
64230;BME280;50547;49.498;0.092;2022-10-23T11:57:11;998;;;24.05;58.38
64230;BME280;50547;49.498;0.092;2022-10-23T11:59:56;998;;;24.07;58.57
64230;BME280;50547;49.498;0.092;2022-10-23T12:02:29;998;;;24.17;57.96
64230;BME280;50547;49.498;0.092;2022-10-23T12:05:03;998;;;24.14;58.17
64230;BME280;50547;49.498;0.092;2022-10-23T12:07:36;997;;;24.08;58.59
64230;BME280;50547;49.498;0.092;2022-10-23T12:10:05;997;;;24.16;58.00
64230;BME280;50547;49.498;0.092;2022-10-23T12:12:37;997;;;23.90;58.73
64230;BME280;50547;49.498;0.092;2022-10-23T12:15:17;997;;;24.13;57.88
64230;BME280;50547;49.498;0.092;2022-10-23T12:17:48;997;;;24.25;57.12
64230;BME280;50547;49.498;0.092;2022-10-23T12:20:25;997;;;24.45;56.49
64230;BME280;50547;49.498;0.092;2022-10-23T12:23:08;997;;;24.38;56.29
64230;BME280;50547;49.498;0.092;2022-10-23T12:25:56;997;;;24.61;55.76
64230;BME280;50547;49.498;0.092;2022-10-23T12:28:33;997;;;24.66;55.59
64230;BME280;50547;49.498;0.092;2022-10-23T12:31:20;997;;;24.65;55.51
64230;BME280;50547;49.498;0.092;2022-10-23T12:34:00;997;;;24.79;54.97
64230;BME280;50547;49.498;0.092;2022-10-23T12:36:42;996;;;25.25;53.98
64230;BME280;50547;49.498;0.092;2022-10-23T12:39:52;996;;;25.31;53.63
64230;BME280;50547;49.498;0.092;2022-10-23T12:42:24;996;;;24.94;55.29
64230;BME280;50547;49.498;0.092;2022-10-23T12:44:58;996;;;24.64;56.57
64230;BME280;50547;49.498;0.092;2022-10-23T12:47:29;996;;;24.55;56.44
64230;BME280;50547;49.498;0.092;2022-10-23T12:49:58;996;;;24.07;57.73
64230;BME280;50547;49.498;0.092;2022-10-23T12:52:27;996;;;23.98;58.08
64230;BME280;50547;49.498;0.092;2022-10-23T12:54:56;996;;;23.84;58.34
64230;BME280;50547;49.498;0.092;2022-10-23T12:57:27;996;;;23.62;58.78
64230;BME280;50547;49.498;0.092;2022-10-23T13:00:00;996;;;23.44;59.78
64230;BME280;50547;49.498;0.092;2022-10-23T13:02:31;996;;;23.51;59.34
64230;BME280;50547;49.498;0.092;2022-10-23T13:05:02;996;;;23.38;59.65
64230;BME280;50547;49.498;0.092;2022-10-23T13:07:37;996;;;23.19;61.24
64230;BME280;50547;49.498;0.092;2022-10-23T13:10:12;996;;;22.93;62.20
64230;BME280;50547;49.498;0.092;2022-10-23T13:12:46;996;;;22.87;62.19
64230;BME280;50547;49.498;0.092;2022-10-23T13:15:19;996;;;22.65;62.20
64230;BME280;50547;49.498;0.092;2022-10-23T13:18:03;996;;;22.64;61.53
64230;BME280;50547;49.498;0.092;2022-10-23T13:20:33;996;;;22.71;60.80
64230;BME280;50547;49.498;0.092;2022-10-23T13:23:10;996;;;22.65;61.18
64230;BME280;50547;49.498;0.092;2022-10-23T13:25:39;996;;;22.55;61.09
64230;BME280;50547;49.498;0.092;2022-10-23T13:28:18;996;;;22.45;61.17
64230;BME280;50547;49.498;0.092;2022-10-23T13:31:00;996;;;22.53;61.39
64230;BME280;50547;49.498;0.092;2022-10-23T13:33:33;996;;;22.51;61.62
64230;BME280;50547;49.498;0.092;2022-10-23T13:36:05;996;;;22.47;61.23
64230;BME280;50547;49.498;0.092;2022-10-23T13:38:39;996;;;22.52;61.13
64230;BME280;50547;49.498;0.092;2022-10-23T13:41:11;995;;;22.64;60.90
64230;BME280;50547;49.498;0.092;2022-10-23T13:43:42;995;;;22.63;60.60
64230;BME280;50547;49.498;0.092;2022-10-23T13:46:19;995;;;22.75;59.99
64230;BME280;50547;49.498;0.092;2022-10-23T13:48:49;995;;;22.63;60.51
64230;BME280;50547;49.498;0.092;2022-10-23T13:51:21;995;;;22.62;60.72
64230;BME280;50547;49.498;0.092;2022-10-23T13:53:51;996;;;22.62;60.99
64230;BME280;50547;49.498;0.092;2022-10-23T13:56:22;995;;;22.56;61.86
64230;BME280;50547;49.498;0.092;2022-10-23T13:58:52;995;;;22.60;62.59
64230;BME280;50547;49.498;0.092;2022-10-23T14:01:23;996;;;22.35;66.01
64230;BME280;50547;49.498;0.092;2022-10-23T14:03:55;996;;;22.12;68.01
64230;BME280;50547;49.498;0.092;2022-10-23T14:06:24;996;;;21.43;70.87
64230;BME280;50547;49.498;0.092;2022-10-23T14:08:54;996;;;21.26;71.55
64230;BME280;50547;49.498;0.092;2022-10-23T14:11:23;996;;;20.45;77.65
64230;BME280;50547;49.498;0.092;2022-10-23T14:13:52;996;;;19.63;79.22
64230;BME280;50547;49.498;0.092;2022-10-23T14:16:27;996;;;19.36;78.49
64230;BME280;50547;49.498;0.092;2022-10-23T14:18:56;996;;;19.36;77.81
64230;BME280;50547;49.498;0.092;2022-10-23T14:21:25;996;;;19.33;77.39
64230;BME280;50547;49.498;0.092;2022-10-23T14:23:54;996;;;19.20;77.78
64230;BME280;50547;49.498;0.092;2022-10-23T14:26:25;996;;;19.43;75.78
64230;BME280;50547;49.498;0.092;2022-10-23T14:28:56;996;;;19.88;73.81